createdAt,value
2023-01-25T00:01:08.038Z,12.37
2023-01-25T00:03:39.679Z,12.50
2023-01-25T00:06:10.926Z,13.13
2023-01-25T00:08:41.455Z,12.90
2023-01-25T00:11:12.013Z,13.73
2023-01-25T00:13:42.924Z,12.50
2023-01-25T00:16:15.391Z,12.77
2023-01-25T00:18:47.289Z,13.23
2023-01-25T00:21:24.463Z,13.57
2023-01-25T00:23:55.941Z,13.27
2023-01-25T00:26:26.538Z,12.53
2023-01-25T00:28:57.676Z,12.63
2023-01-25T00:31:38.059Z,12.03
2023-01-25T00:34:30.152Z,12.10
2023-01-25T00:37:22.372Z,12.87
2023-01-25T00:39:53.567Z,12.10
2023-01-25T00:42:24.847Z,12.80
2023-01-25T00:44:58.521Z,12.87
2023-01-25T00:47:29.171Z,13.33
2023-01-25T00:50:00.026Z,13.53
2023-01-25T00:52:30.997Z,15.07
2023-01-25T00:57:36.393Z,11.97
2023-01-25T01:00:08.419Z,14.23
2023-01-25T01:02:39.538Z,13.50
2023-01-25T01:05:10.768Z,13.30
2023-01-25T01:07:43.803Z,13.83
2023-01-25T01:10:15.837Z,13.67
2023-01-25T01:12:46.192Z,14.60
2023-01-25T01:15:16.677Z,15.00
2023-01-25T01:17:47.277Z,13.37
2023-01-25T01:20:19.464Z,13.70
2023-01-25T01:22:54.763Z,13.67
2023-01-25T01:25:25.392Z,14.33
2023-01-25T01:27:57.800Z,13.90
2023-01-25T01:30:28.059Z,13.30
2023-01-25T01:32:58.594Z,14.47
2023-01-25T01:35:31.120Z,13.90
2023-01-25T01:38:01.987Z,14.17
2023-01-25T01:40:32.457Z,13.87
2023-01-25T01:43:06.219Z,14.18
2023-01-25T01:45:49.191Z,14.07
2023-01-25T01:48:39.468Z,13.97
2023-01-25T01:51:46.286Z,15.00
2023-01-25T01:54:29.369Z,13.90
2023-01-25T01:57:17.799Z,13.63
2023-01-25T02:00:08.127Z,14.10
2023-01-25T02:02:39.000Z,14.07
2023-01-25T02:05:12.759Z,14.17
2023-01-25T02:07:44.781Z,14.33
2023-01-25T02:10:15.687Z,14.67
2023-01-25T02:12:48.069Z,13.50
2023-01-25T02:15:19.950Z,13.93
2023-01-25T02:17:52.307Z,15.43
2023-01-25T02:20:49.025Z,14.87
2023-01-25T02:23:34.349Z,15.23
2023-01-25T02:26:07.012Z,14.83
2023-01-25T02:28:52.910Z,15.03
2023-01-25T02:31:23.680Z,16.10
2023-01-25T02:33:54.391Z,14.77
2023-01-25T02:36:30.940Z,14.45
2023-01-25T02:39:06.811Z,14.90
2023-01-25T02:41:39.869Z,15.13
2023-01-25T02:44:16.730Z,15.60
2023-01-25T02:46:48.635Z,16.27
2023-01-25T02:49:19.679Z,14.87
2023-01-25T02:51:58.833Z,14.97
2023-01-25T02:54:29.420Z,14.83
2023-01-25T02:57:02.611Z,14.50
2023-01-25T02:59:33.123Z,15.23
2023-01-25T03:02:04.587Z,14.77
2023-01-25T03:04:37.692Z,15.17
2023-01-25T03:07:08.107Z,15.27
2023-01-25T03:09:40.223Z,14.50
2023-01-25T03:12:10.950Z,15.17
2023-01-25T03:14:41.415Z,13.83
2023-01-25T03:17:12.755Z,14.37
2023-01-25T03:19:43.203Z,15.00
2023-01-25T03:22:13.865Z,14.37
2023-01-25T03:24:46.019Z,15.07
2023-01-25T03:27:18.256Z,14.47
2023-01-25T03:29:49.214Z,15.57
2023-01-25T03:32:19.950Z,14.50
2023-01-25T03:34:51.016Z,14.13
2023-01-25T03:37:23.205Z,15.50
2023-01-25T03:39:53.608Z,14.80
2023-01-25T03:42:25.053Z,14.97
2023-01-25T03:44:55.499Z,15.00
2023-01-25T03:47:26.131Z,14.60
2023-01-25T03:49:56.668Z,15.37
2023-01-25T03:52:28.058Z,15.30
2023-01-25T03:54:58.518Z,14.87
2023-01-25T03:57:28.893Z,14.73
2023-01-25T03:59:59.290Z,15.10
2023-01-25T04:02:30.089Z,14.30
2023-01-25T04:05:00.618Z,14.27
2023-01-25T04:07:36.313Z,14.37
2023-01-25T04:10:07.928Z,15.27
2023-01-25T04:12:38.431Z,15.87
2023-01-25T04:15:10.593Z,15.13
2023-01-25T04:17:41.363Z,13.93
2023-01-25T04:20:14.366Z,14.40
2023-01-25T04:22:44.968Z,14.20
2023-01-25T04:25:15.602Z,14.77
2023-01-25T04:27:47.684Z,14.70
2023-01-25T04:30:19.286Z,14.43
2023-01-25T04:32:49.891Z,16.33
2023-01-25T04:35:23.390Z,16.30
2023-01-25T04:37:58.033Z,15.20
2023-01-25T04:40:28.622Z,14.53
2023-01-25T04:42:59.658Z,15.20
2023-01-25T04:45:30.339Z,15.63
2023-01-25T04:48:08.505Z,15.73
2023-01-25T04:50:40.526Z,17.10
2023-01-25T04:53:13.559Z,15.13
2023-01-25T04:55:47.614Z,15.20
2023-01-25T04:58:19.995Z,15.30
2023-01-25T05:00:52.230Z,14.57
2023-01-25T05:03:22.715Z,16.27
2023-01-25T05:05:53.214Z,14.97
2023-01-25T05:08:25.551Z,15.03
2023-01-25T05:10:56.271Z,15.57
2023-01-25T05:13:27.348Z,16.53
2023-01-25T05:15:58.784Z,13.80
2023-01-25T05:18:42.756Z,15.27
2023-01-25T05:21:04.717Z,14.60
2023-01-25T05:23:38.184Z,14.60
2023-01-25T05:26:26.898Z,14.47
2023-01-25T05:28:57.337Z,14.40
2023-01-25T05:31:27.955Z,14.33
2023-01-25T05:33:58.598Z,13.80
2023-01-25T05:36:29.192Z,13.80
2023-01-25T05:39:01.568Z,12.23
2023-01-25T05:41:33.670Z,13.03
2023-01-25T05:44:08.744Z,12.40
2023-01-25T05:46:40.722Z,12.97
2023-01-25T05:49:14.412Z,11.97
2023-01-25T05:51:45.689Z,12.83
2023-01-25T05:54:19.533Z,12.13
2023-01-25T05:56:51.652Z,13.03
2023-01-25T05:59:22.075Z,12.60
2023-01-25T06:01:54.069Z,13.27
2023-01-25T06:04:24.554Z,12.73
2023-01-25T06:06:55.707Z,12.50
2023-01-25T06:09:27.130Z,12.97
2023-01-25T06:12:00.501Z,12.13
2023-01-25T06:14:32.261Z,12.53
2023-01-25T06:17:04.795Z,12.07
2023-01-25T06:19:36.383Z,13.53
2023-01-25T06:22:09.521Z,12.13
2023-01-25T06:24:44.122Z,12.17
2023-01-25T06:27:15.045Z,14.30
2023-01-25T06:29:48.047Z,12.33
2023-01-25T06:32:18.000Z,13.37
2023-01-25T06:34:49.045Z,13.53
2023-01-25T06:37:21.322Z,12.50
2023-01-25T06:39:51.938Z,10.53
2023-01-25T06:42:26.868Z,10.87
2023-01-25T06:44:57.659Z,9.73
2023-01-25T06:47:28.132Z,9.73
2023-01-25T06:49:59.852Z,10.33
2023-01-25T06:52:31.862Z,11.27
2023-01-25T06:55:03.457Z,10.53
2023-01-25T06:57:35.522Z,11.07
2023-01-25T07:00:07.193Z,12.63
2023-01-25T07:02:38.228Z,10.70
2023-01-25T07:05:09.493Z,12.50
2023-01-25T07:07:40.683Z,12.50
2023-01-25T07:10:11.901Z,12.13
2023-01-25T07:12:42.458Z,12.97
2023-01-25T07:15:12.979Z,13.60
2023-01-25T07:17:44.213Z,14.00
2023-01-25T07:20:17.633Z,13.13
2023-01-25T07:22:48.516Z,12.97
2023-01-25T07:25:19.513Z,14.10
2023-01-25T07:27:51.753Z,14.23
2023-01-25T07:30:22.815Z,14.23
2023-01-25T07:32:56.600Z,12.47
2023-01-25T07:35:27.185Z,13.37
2023-01-25T07:37:57.694Z,13.13
2023-01-25T07:40:28.534Z,12.53
2023-01-25T07:42:59.461Z,14.10
2023-01-25T07:45:32.698Z,13.37
2023-01-25T07:48:06.218Z,13.43
2023-01-25T07:50:36.881Z,13.23
2023-01-25T07:53:07.497Z,13.03
2023-01-25T07:55:38.317Z,12.50
2023-01-25T07:58:11.663Z,12.60
2023-01-25T08:00:42.189Z,12.93
2023-01-25T08:03:14.426Z,11.30
2023-01-25T08:05:48.175Z,13.17
2023-01-25T08:08:20.176Z,13.87
2023-01-25T08:10:51.054Z,13.43
2023-01-25T08:13:25.897Z,12.93
2023-01-25T08:15:56.867Z,13.60
2023-01-25T08:18:29.668Z,14.07
2023-01-25T08:21:01.405Z,13.80
2023-01-25T08:23:32.092Z,14.23
2023-01-25T08:26:07.402Z,13.33
2023-01-25T08:28:38.090Z,13.90
2023-01-25T08:31:14.245Z,14.00
2023-01-25T08:33:46.580Z,12.57
2023-01-25T08:36:18.461Z,13.33
2023-01-25T08:38:50.088Z,14.40
2023-01-25T08:41:20.744Z,13.93
2023-01-25T08:43:53.840Z,12.80
2023-01-25T08:46:25.913Z,13.77
2023-01-25T08:48:58.282Z,14.00
2023-01-25T08:51:32.217Z,13.47
2023-01-25T08:54:08.356Z,13.30
2023-01-25T08:56:41.333Z,13.03
2023-01-25T08:59:15.261Z,13.03
2023-01-25T09:01:46.331Z,12.80
2023-01-25T09:04:19.894Z,13.63
2023-01-25T09:06:53.021Z,13.43
2023-01-25T09:09:24.990Z,13.87
2023-01-25T09:11:56.079Z,13.93
2023-01-25T09:14:26.820Z,13.67
2023-01-25T09:16:57.269Z,14.10
2023-01-25T09:19:27.771Z,13.63
2023-01-25T09:21:58.261Z,13.17
2023-01-25T09:24:28.907Z,13.90
2023-01-25T09:27:00.275Z,14.13
2023-01-25T09:29:33.766Z,13.98
2023-01-25T09:32:05.259Z,15.57
2023-01-25T09:34:37.204Z,14.73
2023-01-25T09:37:09.411Z,14.73
2023-01-25T09:39:40.053Z,13.70
2023-01-25T09:42:47.049Z,14.70
2023-01-25T09:45:26.874Z,14.23
2023-01-25T09:48:29.548Z,14.40
2023-01-25T09:51:14.919Z,13.90
2023-01-25T09:53:59.479Z,13.20
2023-01-25T09:56:37.198Z,12.67
2023-01-25T09:59:15.382Z,13.07
2023-01-25T10:01:59.127Z,13.00
2023-01-25T10:04:38.686Z,13.30
2023-01-25T10:07:29.800Z,13.63
2023-01-25T10:10:10.216Z,14.10
2023-01-25T10:12:41.628Z,14.63
2023-01-25T10:15:24.160Z,14.00
2023-01-25T10:18:09.595Z,14.03
2023-01-25T10:20:53.188Z,14.73
2023-01-25T10:23:29.728Z,14.60
2023-01-25T10:26:11.957Z,15.73
2023-01-25T10:29:04.489Z,14.77
2023-01-25T10:31:48.953Z,15.37
2023-01-25T10:34:41.401Z,14.77
2023-01-25T10:37:12.584Z,14.93
2023-01-25T10:39:46.136Z,14.60
2023-01-25T10:42:17.695Z,14.60
2023-01-25T10:44:48.300Z,13.67
2023-01-25T10:47:33.193Z,13.30
2023-01-25T10:50:04.100Z,13.73
2023-01-25T10:52:40.676Z,14.57
2023-01-25T10:55:19.861Z,17.63
2023-01-25T10:57:54.060Z,13.73
2023-01-25T11:00:41.865Z,15.13
2023-01-25T11:03:24.051Z,16.70
2023-01-25T11:05:59.296Z,16.03
2023-01-25T11:08:38.233Z,16.00
2023-01-25T11:11:17.863Z,17.62
2023-01-25T11:13:48.443Z,17.80
2023-01-25T11:16:27.670Z,16.73
2023-01-25T11:19:00.045Z,14.63
2023-01-25T11:21:33.711Z,14.30
2023-01-25T11:24:10.538Z,16.67
2023-01-25T11:26:42.467Z,16.17
2023-01-25T11:29:16.063Z,16.80
2023-01-25T11:31:58.883Z,16.47
2023-01-25T11:34:32.134Z,16.13
2023-01-25T11:37:17.937Z,16.50
2023-01-25T11:39:54.764Z,17.07
2023-01-25T11:42:37.867Z,16.27
2023-01-25T11:45:27.126Z,18.40
2023-01-25T11:48:12.921Z,16.10
2023-01-25T11:50:47.380Z,18.53
2023-01-25T11:53:25.589Z,18.10
2023-01-25T11:56:28.280Z,18.87
2023-01-25T11:59:09.304Z,18.43
2023-01-25T12:02:07.077Z,18.40
2023-01-25T12:04:49.412Z,16.97
2023-01-25T12:07:40.848Z,17.77
2023-01-25T12:10:41.023Z,18.87
2023-01-25T12:13:14.521Z,18.83
2023-01-25T12:16:11.590Z,19.37
2023-01-25T12:19:16.989Z,18.27
2023-01-25T12:21:53.526Z,18.13
2023-01-25T12:24:42.443Z,18.33
2023-01-25T12:27:34.652Z,19.53
2023-01-25T12:30:18.317Z,19.17
2023-01-25T12:33:14.048Z,19.20
2023-01-25T12:35:56.205Z,19.83
2023-01-25T12:38:35.232Z,18.50
2023-01-25T12:41:14.500Z,19.07
2023-01-25T12:43:51.428Z,18.90
2023-01-25T12:46:42.932Z,18.77
2023-01-25T12:49:16.535Z,21.27
2023-01-25T12:51:48.237Z,20.20
2023-01-25T12:54:24.629Z,19.77
2023-01-25T12:57:02.237Z,19.37
2023-01-25T12:59:54.147Z,17.27
2023-01-25T13:02:47.102Z,18.53
2023-01-25T13:05:36.673Z,16.83
2023-01-25T13:08:23.111Z,15.60
2023-01-25T13:10:52.827Z,15.77
2023-01-25T13:13:29.112Z,16.53
2023-01-25T13:16:04.314Z,16.50
2023-01-25T13:18:39.251Z,17.27
2023-01-25T13:21:11.819Z,16.50
2023-01-25T13:23:46.671Z,16.47
2023-01-25T13:26:28.269Z,16.57
2023-01-25T13:29:03.541Z,15.63
2023-01-25T13:31:59.018Z,17.93
2023-01-25T13:34:34.171Z,16.30
2023-01-25T13:37:22.798Z,16.37
2023-01-25T13:40:06.221Z,15.47
2023-01-25T13:42:39.967Z,16.97
2023-01-25T13:45:22.260Z,16.70
2023-01-25T13:48:12.434Z,16.67
2023-01-25T13:50:49.708Z,17.83
2023-01-25T13:53:24.076Z,17.03
2023-01-25T13:55:58.349Z,15.80
2023-01-25T13:58:32.446Z,15.37
2023-01-25T14:01:08.514Z,15.83
2023-01-25T14:03:49.469Z,15.50
2023-01-25T14:06:25.692Z,16.10
2023-01-25T14:08:59.053Z,15.03
2023-01-25T14:11:32.560Z,15.90
2023-01-25T14:14:07.516Z,15.50
2023-01-25T14:16:38.027Z,16.20
2023-01-25T14:19:26.609Z,17.30
2023-01-25T14:22:16.949Z,14.20
2023-01-25T14:25:11.224Z,15.37
2023-01-25T14:27:54.820Z,14.30
2023-01-25T14:30:27.804Z,14.30
2023-01-25T14:33:04.276Z,14.60
2023-01-25T14:35:54.540Z,15.63
2023-01-25T14:38:24.030Z,15.87
2023-01-25T14:40:57.617Z,15.43
2023-01-25T14:43:29.651Z,14.87
2023-01-25T14:46:00.237Z,15.27
2023-01-25T14:48:40.603Z,14.97
2023-01-25T14:51:21.470Z,14.13
2023-01-25T14:53:54.997Z,14.77
2023-01-25T14:56:31.335Z,15.03
2023-01-25T14:59:06.289Z,13.70
2023-01-25T15:01:39.841Z,14.00
2023-01-25T15:04:14.194Z,14.03
2023-01-25T15:06:50.471Z,14.43
2023-01-25T15:09:39.537Z,13.90
2023-01-25T15:12:29.456Z,15.83
2023-01-25T15:15:00.765Z,14.07
2023-01-25T15:17:48.864Z,14.40
2023-01-25T15:20:35.818Z,14.83
2023-01-25T15:23:27.247Z,13.87
2023-01-25T15:26:03.175Z,14.60
2023-01-25T15:28:34.974Z,14.07
2023-01-25T15:31:09.529Z,13.83
2023-01-25T15:33:40.524Z,14.17
2023-01-25T15:36:15.855Z,14.23
2023-01-25T15:38:46.614Z,14.00
2023-01-25T15:41:18.917Z,13.93
2023-01-25T15:43:50.645Z,13.73
2023-01-25T15:46:25.640Z,13.30
2023-01-25T15:48:56.382Z,14.67
2023-01-25T15:52:00.860Z,13.97
2023-01-25T15:54:55.926Z,13.77
2023-01-25T15:58:15.545Z,13.77
2023-01-25T16:00:45.590Z,13.37
2023-01-25T16:03:19.427Z,13.43
2023-01-25T16:05:54.403Z,14.10
2023-01-25T16:08:25.031Z,13.83
2023-01-25T16:10:56.866Z,13.97
2023-01-25T16:13:27.487Z,14.17
2023-01-25T16:16:03.461Z,13.93
2023-01-25T16:18:35.660Z,14.27
2023-01-25T16:21:08.654Z,13.77
2023-01-25T16:23:42.172Z,14.00
2023-01-25T16:26:23.599Z,12.53
2023-01-25T16:28:54.386Z,13.20
2023-01-25T16:31:32.770Z,13.20
2023-01-25T16:33:57.998Z,13.63
2023-01-25T16:36:31.319Z,14.30
2023-01-25T16:39:22.721Z,14.73
2023-01-25T16:41:56.947Z,12.60
2023-01-25T16:44:29.590Z,13.77
2023-01-25T16:47:00.538Z,13.63
2023-01-25T16:49:33.390Z,13.67
2023-01-25T16:52:04.160Z,14.30
2023-01-25T16:54:37.427Z,13.50
2023-01-25T16:57:20.247Z,14.07
2023-01-25T16:59:44.247Z,15.53
2023-01-25T17:02:15.236Z,14.03
2023-01-25T17:04:45.921Z,13.63
2023-01-25T17:07:16.932Z,12.53
2023-01-25T17:09:47.680Z,15.50
2023-01-25T17:12:18.213Z,13.83
2023-01-25T17:14:49.860Z,13.03
2023-01-25T17:17:20.518Z,13.83
2023-01-25T17:19:54.811Z,12.80
2023-01-25T17:22:25.813Z,12.60
2023-01-25T17:24:56.397Z,11.53
2023-01-25T17:27:27.309Z,10.93
2023-01-25T17:29:57.927Z,10.77
2023-01-25T17:32:28.765Z,12.07
2023-01-25T17:35:03.261Z,11.57
2023-01-25T17:37:35.482Z,12.10
2023-01-25T17:40:07.316Z,13.70
2023-01-25T17:42:39.388Z,13.63
2023-01-25T17:45:10.481Z,12.40
2023-01-25T17:47:44.688Z,11.73
2023-01-25T17:50:17.982Z,12.60
2023-01-25T17:52:49.311Z,11.90
2023-01-25T17:55:21.572Z,10.03
2023-01-25T17:57:52.744Z,11.73
2023-01-25T18:00:25.686Z,11.77
2023-01-25T18:02:56.912Z,12.17
2023-01-25T18:05:32.358Z,11.57
2023-01-25T18:08:05.836Z,12.43
2023-01-25T18:10:36.433Z,13.50
2023-01-25T18:13:07.830Z,12.80
2023-01-25T18:15:38.996Z,13.33
2023-01-25T18:18:10.967Z,13.60
2023-01-25T18:20:44.679Z,13.23
2023-01-25T18:23:15.225Z,13.27
2023-01-25T18:25:47.214Z,13.53
2023-01-25T18:28:17.676Z,14.00
2023-01-25T18:30:53.939Z,14.40
2023-01-25T18:33:27.424Z,14.50
2023-01-25T18:36:02.469Z,14.53
2023-01-25T18:38:34.405Z,13.17
2023-01-25T18:41:05.979Z,13.03
2023-01-25T18:43:38.401Z,13.63
2023-01-25T18:46:11.890Z,14.53
2023-01-25T18:48:44.025Z,12.80
2023-01-25T18:51:19.880Z,12.63
2023-01-25T18:53:53.415Z,13.30
2023-01-25T18:56:26.563Z,12.10
2023-01-25T18:58:58.892Z,13.03
2023-01-25T19:01:30.811Z,12.00
2023-01-25T19:04:02.435Z,13.50
2023-01-25T19:06:33.187Z,11.93
2023-01-25T19:09:05.277Z,10.30
2023-01-25T19:11:37.468Z,11.70
2023-01-25T19:14:10.836Z,12.37
2023-01-25T19:16:41.368Z,12.20
2023-01-25T19:19:12.050Z,12.93
2023-01-25T19:21:42.899Z,12.87
2023-01-25T19:24:19.461Z,12.67
2023-01-25T19:26:49.915Z,13.30
2023-01-25T19:29:21.892Z,11.73
2023-01-25T19:31:54.439Z,11.30
2023-01-25T19:34:28.240Z,11.43
2023-01-25T19:37:01.170Z,11.87
2023-01-25T19:39:33.192Z,11.37
2023-01-25T19:42:03.960Z,12.43
2023-01-25T19:44:36.205Z,12.33
2023-01-25T19:47:10.415Z,14.97
2023-01-25T19:49:45.126Z,13.00
2023-01-25T19:52:21.592Z,13.20
2023-01-25T19:54:52.694Z,13.13
2023-01-25T19:57:23.066Z,12.83
2023-01-25T19:59:53.523Z,13.47
2023-01-25T20:02:24.043Z,12.80
2023-01-25T20:04:55.931Z,11.43
2023-01-25T20:07:28.366Z,11.57
2023-01-25T20:10:00.410Z,12.63
2023-01-25T20:12:33.770Z,10.70
2023-01-25T20:15:11.994Z,10.30
2023-01-25T20:17:41.963Z,10.63
2023-01-25T20:20:14.203Z,11.07
2023-01-25T20:22:45.967Z,10.43
2023-01-25T20:25:18.728Z,10.70
2023-01-25T20:27:52.140Z,10.40
2023-01-25T20:30:25.711Z,10.63
2023-01-25T20:32:58.294Z,10.10
2023-01-25T20:35:30.363Z,11.03
2023-01-25T20:38:01.455Z,10.33
2023-01-25T20:40:34.635Z,11.03
2023-01-25T20:43:05.559Z,11.83
2023-01-25T20:45:37.601Z,10.13
2023-01-25T20:48:09.596Z,10.80
2023-01-25T20:50:41.157Z,9.53
2023-01-25T20:53:12.903Z,11.10
2023-01-25T20:55:45.405Z,11.37
2023-01-25T20:58:15.802Z,9.90
2023-01-25T21:00:46.289Z,9.60
2023-01-25T21:03:17.022Z,9.90
2023-01-25T21:05:59.112Z,9.80
2023-01-25T21:08:29.701Z,9.63
2023-01-25T21:11:01.949Z,9.53
2023-01-25T21:13:34.260Z,9.60
2023-01-25T21:16:10.922Z,9.60
2023-01-25T21:18:44.526Z,9.63
2023-01-25T21:21:18.059Z,11.60
2023-01-25T21:23:51.441Z,10.13
2023-01-25T21:26:24.524Z,10.77
2023-01-25T21:28:59.292Z,10.30
2023-01-25T21:31:34.491Z,11.47
2023-01-25T21:34:06.644Z,11.40
2023-01-25T21:36:37.377Z,11.33
2023-01-25T21:39:08.980Z,10.97
2023-01-25T21:41:39.697Z,10.80
2023-01-25T21:44:29.237Z,11.00
2023-01-25T21:47:27.837Z,11.13
2023-01-25T21:49:53.397Z,11.50
2023-01-25T21:52:24.024Z,10.60
2023-01-25T21:54:55.175Z,10.63
2023-01-25T21:57:28.538Z,11.23
2023-01-25T21:59:59.040Z,11.17
2023-01-25T22:02:29.564Z,11.23
2023-01-25T22:05:00.282Z,11.07
2023-01-25T22:07:33.558Z,11.63
2023-01-25T22:10:04.087Z,11.20
2023-01-25T22:12:34.860Z,10.97
2023-01-25T22:15:06.512Z,10.93
2023-01-25T22:17:37.085Z,10.83
2023-01-25T22:20:08.762Z,10.70
2023-01-25T22:22:39.481Z,9.23
2023-01-25T22:25:12.964Z,11.17
2023-01-25T22:27:49.293Z,9.73
2023-01-25T22:30:21.291Z,9.50
2023-01-25T22:32:51.718Z,8.93
2023-01-25T22:35:23.883Z,10.70
2023-01-25T22:37:54.521Z,10.90
2023-01-25T22:40:25.116Z,10.20
2023-01-25T22:42:55.629Z,10.43
2023-01-25T22:45:26.045Z,10.30
2023-01-25T22:47:56.768Z,10.63
2023-01-25T22:50:27.574Z,11.53
2023-01-25T22:52:58.311Z,10.47
2023-01-25T22:55:31.085Z,10.27
2023-01-25T22:58:03.217Z,10.63
2023-01-25T23:00:33.725Z,11.73
2023-01-25T23:03:04.955Z,11.30
2023-01-25T23:05:35.769Z,11.03
2023-01-25T23:08:06.433Z,11.67
2023-01-25T23:10:38.118Z,10.60
2023-01-25T23:13:08.757Z,11.37
2023-01-25T23:15:43.797Z,11.07
2023-01-25T23:18:32.685Z,11.87
2023-01-25T23:21:07.146Z,12.63
2023-01-25T23:23:37.719Z,11.87
2023-01-25T23:26:08.843Z,11.93
2023-01-25T23:28:40.997Z,11.43
2023-01-25T23:31:21.639Z,11.83
2023-01-25T23:33:54.897Z,11.30
2023-01-25T23:36:42.267Z,12.50
2023-01-25T23:39:13.564Z,13.17
2023-01-25T23:41:44.822Z,11.87
2023-01-25T23:44:18.602Z,13.20
2023-01-25T23:46:51.698Z,12.17
2023-01-25T23:49:22.389Z,12.00
2023-01-25T23:51:54.715Z,12.00
2023-01-25T23:54:27.004Z,13.37
2023-01-25T23:56:58.356Z,12.10
2023-01-25T23:59:29.855Z,12.77
